Logansport, Kentucky
Current Conditions -  °F | °C
As of 12:53 AM on Thursday 23 Oct 2014 (Local Time) from KBWG Reporting Station
Clear Clear  
Wind Chill: 40°   Ceiling: Unl
Heat Index: 40°   Visibility: 8mi
Dew Point: 37°   Wind: 3mph
Humidity: 89%   Direction: 50°NE
Pressure: 30.24"   Gusts: NA
Location:  37.1566°N, 86.7317°W
Report Text: KBWG 230553Z AUTO 05003KT 8SM CLR 04/03 A3024 RMK AO2 SLP239 T00440028 10111 20044 401720044 58003
Loading
Personal Weather Stations






























Interactive Weather Map
Tropical Storm Tracking
New forecast layout! Learn more

10-Day Weather Forecast

Advertisements
Track Severe Weather on mobile